Time;durP1;ratioP1;P1;durP2;ratioP2;P2;SDS_P1;SDS_P2;PMS_P1;PMS_P2;Temp;Humidity;BMP_temperature;BMP_pressure;BME280_temperature;BME280_humidity;BME280_pressure;Samples;Min_cycle;Max_cycle;Signal;HPM_P1;HPM_P2
2020/12/01 00:02:09;;;;;;;16.42;4.25;;;26.30;62.60;;;;;;5070824;28;20394;-83
2020/12/01 00:04:36;;;;;;;13.68;4.15;;;26.70;62.70;;;;;;5071679;28;20885;-84
2020/12/01 00:07:03;;;;;;;10.73;4.05;;;27.40;59.50;;;;;;5072321;28;20400;-83
2020/12/01 00:09:30;;;;;;;15.15;4.97;;;27.90;61.20;;;;;;5069555;28;20471;-84
2020/12/01 00:11:57;;;;;;;13.98;4.03;;;28.10;60.50;;;;;;5071006;28;20927;-84
2020/12/01 00:14:24;;;;;;;14.00;4.75;;;28.30;57.60;;;;;;5070914;28;20402;-83
2020/12/01 00:16:51;;;;;;;11.88;4.28;;;28.10;59.70;;;;;;5071077;28;20892;-83
2020/12/01 00:19:18;;;;;;;12.30;4.43;;;28.70;59.80;;;;;;5070266;28;20872;-83
2020/12/01 00:21:46;;;;;;;15.60;4.20;;;28.80;57.80;;;;;;5075314;28;20386;-84
2020/12/01 00:24:13;;;;;;;13.63;4.23;;;28.90;56.20;;;;;;5076715;28;20409;-84
2020/12/01 00:26:40;;;;;;;9.93;3.78;;;28.90;55.20;;;;;;5072953;28;20396;-83
2020/12/01 00:29:08;;;;;;;12.60;4.15;;;28.60;57.20;;;;;;5070922;28;20398;-83
2020/12/01 00:31:43;;;;;;;14.07;3.92;;;28.50;57.90;;;;;;5072753;28;20443;-84
2020/12/01 00:34:12;;;;;;;13.30;4.05;;;28.40;57.60;;;;;;5067373;28;20386;-84
2020/12/01 00:36:40;;;;;;;10.38;3.75;;;28.40;59.00;;;;;;5068928;28;20414;-84
2020/12/01 00:39:09;;;;;;;12.10;3.90;;;28.60;59.70;;;;;;5071897;28;20386;-83
2020/12/01 00:41:37;;;;;;;12.82;3.83;;;28.60;57.40;;;;;;5075151;28;20404;-83
2020/12/01 00:44:04;;;;;;;12.80;3.53;;;29.10;56.60;;;;;;5074376;28;20422;-84
2020/12/01 00:46:32;;;;;;;12.43;3.73;;;29.10;56.90;;;;;;5069333;28;20405;-84
2020/12/01 00:48:59;;;;;;;11.85;3.65;;;29.10;55.70;;;;;;5069010;28;20390;-83
2020/12/01 00:51:26;;;;;;;9.60;3.70;;;28.90;56.60;;;;;;5070350;28;20402;-84
2020/12/01 00:53:53;;;;;;;8.93;3.35;;;28.70;61.20;;;;;;5069150;28;20390;-83
2020/12/01 00:56:24;;;;;;;12.60;3.30;;;29.20;54.70;;;;;;5069442;28;20896;-83
2020/12/01 00:58:52;;;;;;;9.55;3.53;;;29.20;58.30;;;;;;5072673;28;20390;-82
2020/12/01 01:01:20;;;;;;;12.40;3.40;;;29.00;54.30;;;;;;5069670;28;20888;-81
2020/12/01 01:03:47;;;;;;;13.18;3.58;;;28.70;60.00;;;;;;5070381;28;20457;-82
2020/12/01 01:06:15;;;;;;;13.02;3.53;;;28.60;57.70;;;;;;5071525;28;20615;-82
2020/12/01 01:08:42;;;;;;;12.48;3.40;;;28.30;55.40;;;;;;5072640;28;20398;-82
2020/12/01 01:11:10;;;;;;;12.10;3.55;;;28.20;58.30;;;;;;5076936;28;21237;-83
2020/12/01 01:13:41;;;;;;;10.73;3.25;;;28.20;56.70;;;;;;5069198;28;20444;-81
2020/12/01 01:16:08;;;;;;;13.95;3.58;;;28.00;57.10;;;;;;5070668;28;20429;-81
2020/12/01 01:18:36;;;;;;;13.30;3.70;;;28.00;59.80;;;;;;5077094;28;20463;-81
2020/12/01 01:21:03;;;;;;;12.05;3.47;;;28.20;59.40;;;;;;5070838;28;20429;-82
2020/12/01 01:23:30;;;;;;;11.13;3.40;;;28.20;57.00;;;;;;5070282;28;20857;-82
2020/12/01 01:25:57;;;;;;;11.33;3.10;;;28.20;57.20;;;;;;5080855;28;20392;-83
2020/12/01 01:28:24;;;;;;;11.52;3.45;;;28.00;57.50;;;;;;5069388;28;20409;-82
2020/12/01 01:30:51;;;;;;;10.20;3.17;;;28.00;61.30;;;;;;5069819;28;20769;-83
2020/12/01 01:33:18;;;;;;;12.77;3.38;;;28.10;57.90;;;;;;5070177;28;20378;-83
2020/12/01 01:35:45;;;;;;;13.75;3.28;;;28.00;59.70;;;;;;5071806;28;20411;-83
2020/12/01 01:38:12;;;;;;;12.50;3.35;;;28.10;60.30;;;;;;5068033;28;20390;-83
2020/12/01 01:40:39;;;;;;;8.73;2.97;;;28.50;59.20;;;;;;5075044;28;20406;-83
2020/12/01 01:43:06;;;;;;;11.50;3.50;;;28.80;57.40;;;;;;5069073;28;20424;-83
2020/12/01 01:45:47;;;;;;;10.70;2.88;;;28.80;59.00;;;;;;5070062;28;20385;-82
2020/12/01 01:48:22;;;;;;;11.88;3.67;;;28.60;57.00;;;;;;5076047;28;20425;-83
2020/12/01 01:51:01;;;;;;;14.07;3.77;;;28.40;59.60;;;;;;5071134;28;20394;-82
2020/12/01 01:53:31;;;;;;;10.95;3.13;;;28.80;59.80;;;;;;5069899;28;20390;-83
2020/12/01 01:56:02;;;;;;;11.70;2.97;;;28.80;58.00;;;;;;5069452;28;20406;-83
2020/12/01 01:58:36;;;;;;;13.57;3.53;;;28.80;57.50;;;;;;5068479;28;20374;-81
2020/12/01 02:01:19;;;;;;;10.73;3.35;;;28.70;58.40;;;;;;5071828;28;20470;-82
2020/12/01 02:03:55;;;;;;;10.85;3.22;;;28.70;57.50;;;;;;5073248;28;20927;-83
2020/12/01 02:06:38;;;;;;;10.15;3.05;;;28.70;61.00;;;;;;5068147;28;20949;-83
2020/12/01 02:09:16;;;;;;;11.52;3.47;;;28.70;57.10;;;;;;5068323;28;20373;-83
2020/12/01 02:11:45;;;;;;;9.75;3.17;;;28.90;59.90;;;;;;5069202;28;20401;-83
2020/12/01 02:14:15;;;;;;;13.32;3.25;;;29.20;58.30;;;;;;5069240;28;20420;-83
2020/12/01 02:16:47;;;;;;;12.70;3.25;;;29.30;57.40;;;;;;5069265;28;20897;-83
2020/12/01 02:19:20;;;;;;;14.17;3.77;;;29.60;55.50;;;;;;5068228;28;20378;-83
2020/12/01 02:21:47;;;;;;;10.63;3.15;;;29.50;55.20;;;;;;5069411;28;20374;-83
2020/12/01 02:24:23;;;;;;;8.20;2.83;;;29.50;57.00;;;;;;5076543;28;20376;-83
2020/12/01 02:26:54;;;;;;;14.88;3.45;;;29.60;60.00;;;;;;5069093;28;20366;-86
2020/12/01 02:29:23;;;;;;;13.02;3.13;;;29.50;55.50;;;;;;5069066;28;20409;-89
2020/12/01 02:31:50;;;;;;;8.80;3.00;;;29.30;57.10;;;;;;5069118;28;20398;-90
2020/12/01 02:34:22;;;;;;;14.40;3.60;;;29.40;56.80;;;;;;5076435;28;20969;-86
2020/12/01 02:36:51;;;;;;;12.57;3.07;;;29.60;56.00;;;;;;5074192;28;20447;-86
2020/12/01 02:39:22;;;;;;;9.77;2.90;;;29.90;58.30;;;;;;5085239;28;20396;-87
2020/12/01 02:41:53;;;;;;;10.02;3.17;;;30.10;56.70;;;;;;5090382;28;20380;-86
2020/12/01 02:44:20;;;;;;;11.00;3.17;;;30.20;58.20;;;;;;5080079;28;20381;-86
2020/12/01 02:46:47;;;;;;;13.02;3.28;;;30.50;56.00;;;;;;5070961;28;20433;-87
2020/12/01 02:49:14;;;;;;;10.50;2.80;;;30.30;58.30;;;;;;5068566;28;20405;-87
2020/12/01 02:51:41;;;;;;;13.57;3.75;;;30.20;53.70;;;;;;5067513;28;20445;-87
2020/12/01 02:54:08;;;;;;;9.57;2.97;;;30.20;57.50;;;;;;5066615;28;20468;-89
2020/12/01 02:56:35;;;;;;;12.55;3.30;;;30.10;56.50;;;;;;5069627;28;20405;-88
2020/12/01 02:59:02;;;;;;;11.98;3.15;;;30.00;56.10;;;;;;5068728;28;20389;-88
2020/12/01 03:01:30;;;;;;;12.10;3.30;;;29.90;57.90;;;;;;5069321;28;20401;-88
2020/12/01 03:03:57;;;;;;;11.20;3.20;;;29.90;56.70;;;;;;5070368;28;20389;-87
2020/12/01 03:06:24;;;;;;;13.15;3.03;;;30.10;59.80;;;;;;5069131;28;20413;-87
2020/12/01 03:08:51;;;;;;;13.88;3.60;;;30.20;56.00;;;;;;5069268;28;20370;-87
2020/12/01 03:11:18;;;;;;;13.30;3.60;;;30.10;56.40;;;;;;5073886;28;20923;-87
2020/12/01 03:13:45;;;;;;;14.70;3.67;;;30.10;57.50;;;;;;5069382;28;20401;-86
2020/12/01 03:16:12;;;;;;;14.75;3.75;;;30.20;57.50;;;;;;5068739;28;20924;-87
2020/12/01 03:18:43;;;;;;;12.38;3.03;;;30.30;57.80;;;;;;5081571;28;20959;-87
2020/12/01 03:21:15;;;;;;;14.27;3.45;;;30.60;55.40;;;;;;5069783;28;20422;-87
2020/12/01 03:23:43;;;;;;;14.63;3.60;;;30.70;56.30;;;;;;5074940;28;20362;-88
2020/12/01 03:26:16;;;;;;;12.25;3.42;;;30.90;55.40;;;;;;5068427;28;20413;-87
2020/12/01 03:28:44;;;;;;;13.30;3.55;;;30.80;56.10;;;;;;5068572;28;20389;-87
2020/12/01 03:31:16;;;;;;;16.90;4.13;;;30.50;56.00;;;;;;5063936;28;20390;-89
2020/12/01 03:33:43;;;;;;;12.97;4.00;;;30.60;59.30;;;;;;5069735;28;20404;-88
2020/12/01 03:36:10;;;;;;;12.60;3.50;;;30.70;57.00;;;;;;5073310;28;20415;-83
2020/12/01 03:38:37;;;;;;;13.10;4.00;;;30.60;56.10;;;;;;5070239;28;20388;-90
2020/12/01 03:41:06;;;;;;;14.02;3.80;;;30.50;57.20;;;;;;5067099;28;20392;-89
2020/12/01 03:43:34;;;;;;;11.95;3.72;;;30.40;58.20;;;;;;5066379;28;20394;-88
2020/12/01 03:46:01;;;;;;;12.13;4.13;;;30.50;58.90;;;;;;5070135;28;20544;-89
2020/12/01 03:48:29;;;;;;;10.88;3.45;;;30.50;58.20;;;;;;5069655;28;20394;-90
2020/12/01 03:50:56;;;;;;;14.63;4.05;;;30.60;59.20;;;;;;5060984;28;20413;-89
2020/12/01 03:53:23;;;;;;;9.60;3.50;;;30.60;59.00;;;;;;5072517;28;20386;-90
2020/12/01 03:55:50;;;;;;;14.17;3.67;;;30.50;57.00;;;;;;5069612;28;20733;-88
2020/12/01 03:58:18;;;;;;;13.75;4.07;;;30.40;58.80;;;;;;5076082;28;20374;-87
2020/12/01 04:00:46;;;;;;;18.98;4.72;;;30.50;57.80;;;;;;5075728;28;20404;-90
2020/12/01 04:03:13;;;;;;;16.23;4.45;;;30.30;59.40;;;;;;5075922;28;20394;-89
2020/12/01 04:05:40;;;;;;;13.30;4.32;;;30.40;59.40;;;;;;5083615;28;20743;-89
2020/12/01 04:08:11;;;;;;;21.33;5.50;;;30.50;59.70;;;;;;5070141;28;20432;-86
2020/12/01 04:10:38;;;;;;;14.77;4.70;;;30.50;58.80;;;;;;5078331;28;20384;-88
2020/12/01 04:13:06;;;;;;;11.63;4.28;;;30.50;57.40;;;;;;5072624;28;20386;-87
2020/12/01 04:15:34;;;;;;;19.40;5.55;;;30.30;58.60;;;;;;5089438;28;20384;-88
2020/12/01 04:18:04;;;;;;;16.73;5.18;;;30.20;59.60;;;;;;5077564;28;20370;-89
2020/12/01 04:20:31;;;;;;;16.77;4.72;;;30.00;60.50;;;;;;5070059;28;20386;-86
2020/12/01 04:22:59;;;;;;;20.85;5.53;;;30.00;60.50;;;;;;5072236;28;20393;-87
2020/12/01 04:25:26;;;;;;;17.97;5.93;;;29.80;60.90;;;;;;5073893;28;20410;-89
2020/12/01 04:27:56;;;;;;;21.23;6.17;;;29.80;61.80;;;;;;5063874;28;20391;-88
2020/12/01 04:30:23;;;;;;;18.65;5.40;;;29.70;61.30;;;;;;5070390;28;20466;-89
2020/12/01 04:32:53;;;;;;;16.40;5.25;;;29.70;62.60;;;;;;5069251;28;20456;-88
2020/12/01 04:35:24;;;;;;;18.75;5.80;;;29.70;61.40;;;;;;5076226;28;20381;-88
2020/12/01 04:37:54;;;;;;;20.27;6.10;;;29.80;62.20;;;;;;5077586;28;20788;-86
2020/12/01 04:40:24;;;;;;;17.23;5.57;;;29.90;62.30;;;;;;5066257;28;20469;-87
2020/12/01 04:43:00;;;;;;;17.50;6.18;;;29.90;61.60;;;;;;5075572;28;20453;-86
2020/12/01 04:45:28;;;;;;;20.58;6.75;;;30.00;60.70;;;;;;5071139;28;20414;-88
2020/12/01 04:47:57;;;;;;;23.50;6.35;;;29.60;61.80;;;;;;5075348;28;20933;-88
2020/12/01 04:50:47;;;;;;;19.88;6.15;;;29.40;62.30;;;;;;5071922;28;20382;-90
2020/12/01 04:53:42;;;;;;;21.75;6.85;;;29.20;64.70;;;;;;5071077;28;20406;-88
2020/12/01 04:56:15;;;;;;;24.40;7.15;;;29.30;63.30;;;;;;5070867;28;20398;-89
2020/12/01 04:59:03;;;;;;;18.95;6.45;;;29.30;64.20;;;;;;5072056;28;20468;-88
2020/12/01 05:01:52;;;;;;;23.45;7.15;;;29.30;62.50;;;;;;5066938;28;20461;-90
2020/12/01 05:04:50;;;;;;;22.40;7.15;;;29.30;63.40;;;;;;5062192;28;20435;-86
2020/12/01 05:07:51;;;;;;;22.63;7.05;;;29.50;63.20;;;;;;5069253;28;20405;-88
2020/12/01 05:10:23;;;;;;;21.92;6.97;;;29.50;63.40;;;;;;5070166;28;20386;-87
2020/12/01 05:12:59;;;;;;;22.67;6.88;;;29.40;62.60;;;;;;5072360;28;20416;-87
2020/12/01 05:15:32;;;;;;;22.73;7.80;;;29.40;63.20;;;;;;5070101;28;20451;-90
2020/12/01 05:18:32;;;;;;;21.58;6.97;;;29.50;63.80;;;;;;5073141;28;20497;-88
2020/12/01 05:21:05;;;;;;;22.25;7.68;;;29.50;62.80;;;;;;5090964;28;20443;-88
2020/12/01 05:23:51;;;;;;;26.67;7.45;;;29.50;63.00;;;;;;5070744;28;20438;-86
2020/12/01 05:26:21;;;;;;;20.98;6.97;;;29.40;62.90;;;;;;5071176;28;20432;-89
2020/12/01 05:28:53;;;;;;;28.50;8.20;;;29.40;63.80;;;;;;5071638;28;20374;-90
2020/12/01 05:31:26;;;;;;;26.38;7.50;;;29.30;63.90;;;;;;5073603;28;20406;-88
2020/12/01 05:34:19;;;;;;;27.90;8.10;;;29.40;63.40;;;;;;5076072;28;20413;-88
2020/12/01 05:36:46;;;;;;;23.10;7.43;;;29.40;64.30;;;;;;5066717;28;20430;-87
2020/12/01 05:39:25;;;;;;;24.10;6.78;;;29.50;63.00;;;;;;5069835;28;20982;-91
2020/12/01 05:42:20;;;;;;;24.20;7.20;;;29.50;63.80;;;;;;5072547;28;20549;-89
2020/12/01 05:44:58;;;;;;;23.27;8.13;;;29.60;63.60;;;;;;5067740;28;20389;-89
2020/12/01 05:47:49;;;;;;;25.48;7.72;;;29.70;63.10;;;;;;5068744;28;20406;-88
2020/12/01 05:50:26;;;;;;;23.58;7.63;;;29.80;63.00;;;;;;5064554;28;20761;-87
2020/12/01 05:53:11;;;;;;;28.13;8.77;;;29.80;62.70;;;;;;5069274;28;20756;-91
2020/12/01 05:55:38;;;;;;;19.20;8.32;;;29.70;62.70;;;;;;5069960;28;20412;-87
2020/12/01 05:58:12;;;;;;;22.63;8.23;;;29.60;63.00;;;;;;5070399;28;20872;-87
2020/12/01 06:00:42;;;;;;;24.85;9.07;;;29.50;63.80;;;;;;5065003;28;20431;-87
2020/12/01 06:03:27;;;;;;;29.07;9.17;;;29.60;63.50;;;;;;5069178;28;20385;-85
2020/12/01 06:05:58;;;;;;;24.35;8.57;;;29.40;63.40;;;;;;5070138;28;20907;-89
2020/12/01 06:08:30;;;;;;;24.83;9.20;;;29.30;64.10;;;;;;5068460;28;20725;-87
2020/12/01 06:11:22;;;;;;;27.60;9.43;;;29.20;64.60;;;;;;5069386;28;20386;-87
2020/12/01 06:13:50;;;;;;;30.75;9.80;;;29.10;64.90;;;;;;5067373;28;20401;-86
2020/12/01 06:16:20;;;;;;;26.90;9.82;;;29.00;65.00;;;;;;5069839;28;20490;-85
2020/12/01 06:19:14;;;;;;;27.58;10.07;;;29.00;65.10;;;;;;5069295;28;20370;-87
2020/12/01 06:22:09;;;;;;;23.50;9.83;;;28.80;65.30;;;;;;5067859;28;20389;-87
2020/12/01 06:25:06;;;;;;;27.77;10.75;;;28.60;66.00;;;;;;5068201;28;20382;-87
2020/12/01 06:27:42;;;;;;;29.42;10.95;;;28.60;66.50;;;;;;5069222;28;20440;-85
2020/12/01 06:30:37;;;;;;;25.33;10.40;;;28.60;65.90;;;;;;5068025;28;20455;-87
2020/12/01 06:33:29;;;;;;;28.05;10.00;;;28.60;66.60;;;;;;5069525;28;20355;-85
2020/12/01 06:36:55;;;;;;;26.10;9.95;;;28.70;66.30;;;;;;5069216;28;20931;-85
2020/12/01 06:39:44;;;;;;;30.25;10.80;;;28.70;67.30;;;;;;5063603;28;20394;-85
2020/12/01 06:42:20;;;;;;;27.93;11.03;;;28.70;66.00;;;;;;5064148;28;20485;-84
2020/12/01 06:45:00;;;;;;;28.58;11.48;;;28.50;66.00;;;;;;5068341;28;20374;-86
2020/12/01 06:47:31;;;;;;;33.03;11.40;;;28.30;66.40;;;;;;5069683;28;20420;-86
2020/12/01 06:50:04;;;;;;;30.67;11.50;;;28.20;67.30;;;;;;5069055;28;20377;-85
2020/12/01 06:52:31;;;;;;;36.20;12.55;;;28.00;68.00;;;;;;5068780;28;20385;-86
2020/12/01 06:54:59;;;;;;;33.78;11.63;;;27.90;67.70;;;;;;5067885;28;20729;-87
2020/12/01 06:57:36;;;;;;;30.50;10.97;;;27.90;68.20;;;;;;5070576;28;20382;-84
2020/12/01 07:00:08;;;;;;;32.10;11.82;;;27.80;68.50;;;;;;5068129;28;20519;-86
2020/12/01 07:02:38;;;;;;;29.92;11.05;;;27.70;68.40;;;;;;5060893;28;20393;-86
2020/12/01 07:05:09;;;;;;;30.50;11.32;;;27.60;68.70;;;;;;5068453;28;20370;-87
2020/12/01 07:07:40;;;;;;;28.07;11.60;;;27.50;68.90;;;;;;5069005;28;20390;-87
2020/12/01 07:10:28;;;;;;;28.08;11.70;;;27.50;69.30;;;;;;5069085;28;20921;-87
2020/12/01 07:13:12;;;;;;;29.95;11.77;;;27.40;69.50;;;;;;5067505;28;20505;-86
2020/12/01 07:15:50;;;;;;;28.45;11.20;;;27.30;69.40;;;;;;5069080;28;20425;-87
2020/12/01 07:18:31;;;;;;;33.67;12.20;;;27.10;69.80;;;;;;5068665;28;20468;-86
2020/12/01 07:21:38;;;;;;;31.85;12.02;;;27.00;70.00;;;;;;5067177;28;20385;-86
2020/12/01 07:24:12;;;;;;;33.37;12.00;;;26.90;70.60;;;;;;5065321;28;20400;-85
2020/12/01 07:26:56;;;;;;;33.47;12.65;;;26.70;70.90;;;;;;5068475;28;20418;-84
2020/12/01 07:29:41;;;;;;;37.00;12.15;;;26.60;71.40;;;;;;5068962;28;20408;-85
2020/12/01 07:32:31;;;;;;;32.17;11.80;;;26.50;72.10;;;;;;5068505;28;20390;-85
2020/12/01 07:35:14;;;;;;;37.17;12.77;;;26.40;72.10;;;;;;5068378;28;20370;-86
2020/12/01 07:38:17;;;;;;;34.40;12.57;;;26.50;72.70;;;;;;5069380;28;20408;-86
2020/12/01 07:40:54;;;;;;;29.67;12.02;;;26.70;71.00;;;;;;5070154;28;20385;-86
2020/12/01 07:43:22;;;;;;;29.45;11.35;;;26.60;71.00;;;;;;5071280;28;20426;-84
2020/12/01 07:45:59;;;;;;;31.17;11.35;;;26.60;70.90;;;;;;5072070;28;20414;-85
2020/12/01 07:48:26;;;;;;;37.35;11.98;;;26.70;70.80;;;;;;5071713;28;20400;-84
2020/12/01 07:51:04;;;;;;;33.88;11.65;;;26.80;70.10;;;;;;5071976;28;20458;-84
2020/12/01 07:53:39;;;;;;;33.58;11.60;;;26.90;70.00;;;;;;5071007;28;20390;-84
2020/12/01 07:56:10;;;;;;;40.25;11.75;;;26.90;69.70;;;;;;5070324;28;20839;-86
2020/12/01 07:58:37;;;;;;;42.47;13.15;;;26.80;73.30;;;;;;5066162;28;20431;-89
2020/12/01 08:01:17;;;;;;;42.00;13.80;;;26.40;78.70;;;;;;5075590;28;20894;-88
2020/12/01 08:03:44;;;;;;;37.95;12.57;;;25.80;80.10;;;;;;5074594;28;20481;-88
2020/12/01 08:06:16;;;;;;;31.17;10.63;;;25.30;83.00;;;;;;5071550;28;20489;-89
2020/12/01 08:08:47;;;;;;;35.50;11.20;;;24.90;83.70;;;;;;5070959;28;20374;-87
2020/12/01 08:11:17;;;;;;;33.42;10.30;;;24.40;87.40;;;;;;5066336;28;20428;-89
2020/12/01 08:13:45;;;;;;;43.42;11.05;;;24.20;89.20;;;;;;5073871;28;20950;-89
2020/12/01 08:16:22;;;;;;;34.33;9.95;;;23.90;90.40;;;;;;5073293;28;20408;-93
2020/12/01 08:18:54;;;;;;;39.43;10.70;;;23.60;90.80;;;;;;5069181;28;20433;-93
2020/12/01 08:21:32;;;;;;;32.47;9.77;;;23.10;92.20;;;;;;5069328;28;20491;-89
2020/12/01 08:24:02;;;;;;;36.22;9.73;;;22.80;93.30;;;;;;5084200;28;20477;-88
2020/12/01 08:26:32;;;;;;;30.40;9.90;;;22.60;94.10;;;;;;5077405;28;20493;-89
2020/12/01 08:29:27;;;;;;;38.93;9.20;;;22.50;94.60;;;;;;5068612;28;20401;-90
2020/12/01 08:32:12;;;;;;;30.75;8.60;;;22.40;94.90;;;;;;5070685;28;20380;-90
2020/12/01 08:35:04;;;;;;;38.83;9.55;;;22.30;95.80;;;;;;5073329;28;20399;-91
2020/12/01 08:38:03;;;;;;;41.88;10.30;;;22.20;95.50;;;;;;5075253;28;20809;-91
2020/12/01 08:40:57;;;;;;;31.13;10.35;;;22.20;96.40;;;;;;5069424;28;20393;-88
2020/12/01 08:43:52;;;;;;;31.83;8.90;;;22.20;96.30;;;;;;5071725;28;20400;-89
2020/12/01 08:46:29;;;;;;;34.65;9.25;;;22.10;96.30;;;;;;5069228;28;20504;-91
2020/12/01 08:49:23;;;;;;;39.15;9.70;;;22.10;96.40;;;;;;5088494;28;20407;-86
2020/12/01 08:51:59;;;;;;;44.55;11.52;;;22.10;96.70;;;;;;5090411;28;20441;-89
2020/12/01 08:54:30;;;;;;;40.78;11.43;;;22.10;97.00;;;;;;5068894;28;20412;-89
2020/12/01 08:57:09;;;;;;;37.42;10.95;;;22.10;97.20;;;;;;5072985;28;20415;-89
2020/12/01 08:59:42;;;;;;;36.33;10.30;;;22.10;97.40;;;;;;5055744;28;20856;-89
2020/12/01 09:02:11;;;;;;;44.35;11.38;;;22.10;97.40;;;;;;5071082;28;20390;-89
2020/12/01 09:04:39;;;;;;;38.53;10.80;;;22.00;97.40;;;;;;5105951;28;20424;-89
2020/12/01 09:07:28;;;;;;;35.63;10.38;;;21.80;97.40;;;;;;5080297;28;20447;-89
2020/12/01 09:10:14;;;;;;;39.22;10.73;;;21.80;97.50;;;;;;5075976;28;20394;-91
2020/12/01 09:15:57;;;;;;;34.60;10.68;;;21.70;97.50;;;;;;5077841;28;20403;-91
2020/12/01 09:23:36;;;;;;;34.70;10.85;;;21.60;97.90;;;;;;5063883;28;20388;-93
2020/12/01 09:26:19;;;;;;;36.83;10.75;;;21.60;97.90;;;;;;5069056;28;20404;-94
2020/12/01 09:28:53;;;;;;;33.73;10.73;;;21.50;98.00;;;;;;5072896;28;20388;-93
2020/12/01 09:31:23;;;;;;;41.20;12.02;;;21.60;98.00;;;;;;5074761;28;20396;-93
2020/12/01 09:33:56;;;;;;;47.03;12.63;;;21.50;98.10;;;;;;5075579;28;20385;-93
2020/12/01 09:36:26;;;;;;;40.67;12.50;;;21.50;98.40;;;;;;5078798;28;20396;-92
2020/12/01 09:38:54;;;;;;;38.90;12.57;;;21.60;98.60;;;;;;5078805;28;20872;-91
2020/12/01 09:41:24;;;;;;;33.90;10.77;;;21.50;98.50;;;;;;5092616;28;20442;-91
2020/12/01 09:43:59;;;;;;;37.73;11.13;;;21.50;98.60;;;;;;5077696;28;20390;-96
2020/12/01 09:46:37;;;;;;;42.28;12.20;;;21.50;98.50;;;;;;5078714;28;20417;-96
2020/12/01 09:49:10;;;;;;;37.47;11.63;;;21.40;98.40;;;;;;5079090;28;20943;-94
2020/12/01 09:51:37;;;;;;;35.40;10.25;;;21.50;98.70;;;;;;5089404;28;20377;-92
2020/12/01 10:10:10;;;;;;;33.88;10.93;;;21.50;98.80;;;;;;5071277;28;20875;-92
2020/12/01 10:24:46;;;;;;;37.87;10.97;;;21.70;98.80;;;;;;5083273;28;20379;-94
2020/12/01 10:35:00;;;;;;;38.25;11.57;;;21.60;98.60;;;;;;5065677;28;20419;-92
2020/12/01 10:37:27;;;;;;;36.67;11.40;;;21.60;98.60;;;;;;5069906;28;20497;-93
2020/12/01 10:39:55;;;;;;;36.10;11.25;;;21.60;98.50;;;;;;5072946;28;20745;-95
2020/12/01 10:42:22;;;;;;;33.60;10.80;;;21.60;98.20;;;;;;5071182;28;20477;-92
2020/12/01 10:44:49;;;;;;;36.15;11.70;;;21.60;98.40;;;;;;5070529;28;20385;-91
2020/12/01 10:47:16;;;;;;;38.38;10.13;;;21.60;98.40;;;;;;5075007;28;20398;-94
2020/12/01 10:49:43;;;;;;;36.90;10.15;;;21.60;98.20;;;;;;5072263;28;20370;-92
2020/12/01 10:52:10;;;;;;;40.97;11.63;;;21.60;98.20;;;;;;5071522;28;20413;-92
2020/12/01 10:54:37;;;;;;;40.50;11.33;;;21.60;98.20;;;;;;5075126;28;20622;-95
2020/12/01 10:57:04;;;;;;;40.67;11.23;;;21.60;97.70;;;;;;5078332;28;20379;-93
2020/12/01 10:59:36;;;;;;;49.22;12.13;;;21.60;97.80;;;;;;5060255;28;20465;-95
2020/12/01 11:02:03;;;;;;;51.15;12.30;;;21.60;97.70;;;;;;5066838;28;21149;-96
2020/12/01 11:04:30;;;;;;;47.60;12.32;;;21.60;97.70;;;;;;5067896;28;20461;-94
2020/12/01 11:06:57;;;;;;;43.17;11.77;;;21.50;97.50;;;;;;5069456;28;20413;-90
2020/12/01 11:09:24;;;;;;;45.17;12.02;;;21.50;97.70;;;;;;5066997;28;20382;-92
2020/12/01 11:11:51;;;;;;;42.50;11.63;;;21.50;97.70;;;;;;5074899;28;20412;-92
2020/12/01 11:14:18;;;;;;;52.75;12.40;;;21.50;97.80;;;;;;5071049;28;20393;-93
2020/12/01 11:16:45;;;;;;;48.47;11.63;;;21.40;97.90;;;;;;5070949;28;20397;-91
2020/12/01 11:19:12;;;;;;;44.30;11.88;;;21.40;97.80;;;;;;5070695;28;20394;-90
2020/12/01 11:21:40;;;;;;;41.13;11.55;;;21.40;98.00;;;;;;5078867;28;20408;-90
2020/12/01 11:24:07;;;;;;;37.78;10.90;;;21.40;97.90;;;;;;5071854;28;20382;-91
2020/12/01 11:26:34;;;;;;;42.43;11.57;;;21.40;97.90;;;;;;5071654;28;20497;-93
2020/12/01 11:29:01;;;;;;;40.63;10.77;;;21.50;97.90;;;;;;5073550;28;20406;-91
2020/12/01 11:31:32;;;;;;;33.55;9.52;;;21.40;97.70;;;;;;5077777;28;20393;-88
2020/12/01 11:34:10;;;;;;;41.00;11.43;;;21.50;98.00;;;;;;5071033;28;20730;-89
2020/12/01 11:36:39;;;;;;;31.90;9.02;;;21.40;98.00;;;;;;5073105;28;20385;-90
2020/12/01 11:39:13;;;;;;;28.52;8.48;;;21.40;97.90;;;;;;5072514;28;20378;-90
2020/12/01 11:41:40;;;;;;;36.55;8.55;;;21.40;97.90;;;;;;5075570;28;20875;-90
2020/12/01 11:44:12;;;;;;;29.55;7.80;;;21.40;97.70;;;;;;5068043;28;20398;-90
2020/12/01 11:46:39;;;;;;;28.38;8.23;;;21.50;97.80;;;;;;5078661;28;20421;-91
2020/12/01 11:49:06;;;;;;;31.17;8.15;;;21.40;97.80;;;;;;5081268;28;20388;-90
2020/12/01 11:51:35;;;;;;;24.52;7.13;;;21.40;97.60;;;;;;5085717;28;20984;-91
2020/12/01 11:54:02;;;;;;;32.33;7.53;;;21.40;97.60;;;;;;5090133;28;20453;-91
2020/12/01 11:56:29;;;;;;;25.13;6.80;;;21.40;97.70;;;;;;5085112;28;20850;-90
2020/12/01 11:58:57;;;;;;;24.47;6.80;;;21.40;97.60;;;;;;5093054;28;20433;-90
2020/12/01 12:01:24;;;;;;;21.50;6.63;;;21.40;97.50;;;;;;5077849;28;20385;-91
2020/12/01 12:03:51;;;;;;;22.07;6.77;;;21.40;97.60;;;;;;5075870;28;20524;-91
2020/12/01 12:06:18;;;;;;;23.52;6.78;;;21.40;97.70;;;;;;5071467;28;20432;-90
2020/12/01 12:08:46;;;;;;;15.73;5.80;;;21.40;97.50;;;;;;5084179;28;20875;-90
2020/12/01 12:11:13;;;;;;;25.00;6.50;;;21.40;97.70;;;;;;5090165;28;20408;-90
2020/12/01 12:13:45;;;;;;;19.70;6.38;;;21.40;97.50;;;;;;5091511;28;20383;-89
2020/12/01 12:16:18;;;;;;;23.85;6.60;;;21.40;97.70;;;;;;5089443;28;20910;-90
2020/12/01 12:18:48;;;;;;;23.05;5.68;;;21.40;97.70;;;;;;5081759;28;20864;-89
2020/12/01 12:21:18;;;;;;;18.00;5.50;;;21.40;97.70;;;;;;5071711;28;20400;-90
2020/12/01 12:23:46;;;;;;;20.52;5.50;;;21.40;97.60;;;;;;5071382;28;20386;-90
2020/12/01 12:26:13;;;;;;;20.42;5.00;;;21.40;97.50;;;;;;5070379;28;20417;-90
2020/12/01 12:28:41;;;;;;;17.70;5.28;;;21.40;97.50;;;;;;5071103;28;20473;-90
2020/12/01 12:31:08;;;;;;;16.63;5.25;;;21.40;97.50;;;;;;5070133;28;20889;-90
2020/12/01 12:33:36;;;;;;;15.05;4.90;;;21.40;97.50;;;;;;5070747;28;20469;-90
2020/12/01 12:36:03;;;;;;;15.25;4.65;;;21.50;97.40;;;;;;5071990;28;20381;-90
2020/12/01 12:38:30;;;;;;;12.07;4.30;;;21.50;97.30;;;;;;5070179;28;20378;-89
2020/12/01 12:40:58;;;;;;;15.82;4.53;;;21.60;97.30;;;;;;5072126;28;20447;-89
2020/12/01 12:43:27;;;;;;;15.30;4.77;;;21.60;97.20;;;;;;5070569;28;20378;-89
2020/12/01 12:45:54;;;;;;;15.00;4.60;;;21.60;97.20;;;;;;5075730;28;20389;-90
2020/12/01 12:48:23;;;;;;;14.23;4.30;;;21.70;97.30;;;;;;5087389;28;20484;-89
2020/12/01 12:50:51;;;;;;;15.50;4.22;;;21.70;97.30;;;;;;5090492;28;20368;-89
2020/12/01 12:53:18;;;;;;;18.87;4.93;;;21.70;97.20;;;;;;5086665;28;20394;-89
2020/12/01 12:55:46;;;;;;;12.48;4.65;;;21.60;97.10;;;;;;5075920;28;20435;-90
2020/12/01 12:58:13;;;;;;;15.80;4.68;;;21.60;97.50;;;;;;5089257;28;20495;-89
2020/12/01 13:00:40;;;;;;;19.90;5.10;;;21.60;97.40;;;;;;5076031;28;20398;-89
2020/12/01 13:03:07;;;;;;;12.98;4.25;;;21.70;97.40;;;;;;5070654;28;20469;-90
2020/12/01 13:05:34;;;;;;;11.80;3.95;;;21.70;97.50;;;;;;5085530;28;20397;-89
2020/12/01 13:08:01;;;;;;;13.73;4.50;;;21.70;97.40;;;;;;5070072;28;20432;-89
2020/12/01 13:10:28;;;;;;;16.00;4.83;;;21.70;97.40;;;;;;5070857;28;20416;-89
2020/12/01 13:12:59;;;;;;;21.38;5.00;;;21.70;97.50;;;;;;5080564;28;20396;-89
2020/12/01 13:15:26;;;;;;;14.73;4.10;;;21.70;97.50;;;;;;5082873;28;20380;-89
2020/12/01 13:17:55;;;;;;;16.53;3.97;;;21.70;97.40;;;;;;5084390;28;20407;-89
2020/12/01 13:20:26;;;;;;;12.57;3.97;;;21.70;97.40;;;;;;5081843;28;20865;-90
2020/12/01 13:22:53;;;;;;;14.68;3.70;;;21.80;97.40;;;;;;5089142;28;20863;-89
2020/12/01 13:25:23;;;;;;;11.02;3.28;;;21.80;97.40;;;;;;5076093;28;20394;-89
2020/12/01 13:27:50;;;;;;;14.37;3.60;;;21.80;97.40;;;;;;5064728;28;20502;-89
2020/12/01 13:30:19;;;;;;;13.60;3.53;;;21.80;97.20;;;;;;5066179;28;20473;-89
2020/12/01 13:32:46;;;;;;;9.88;3.22;;;21.80;97.30;;;;;;5088396;28;20404;-89
2020/12/01 13:35:15;;;;;;;9.90;3.43;;;21.80;97.40;;;;;;5090522;28;20372;-89
2020/12/01 13:37:42;;;;;;;8.55;3.38;;;21.80;97.20;;;;;;5073226;28;20384;-89
2020/12/01 13:40:12;;;;;;;9.18;3.55;;;21.80;97.10;;;;;;5067154;28;20406;-89
2020/12/01 13:42:39;;;;;;;12.15;3.40;;;21.80;97.10;;;;;;5075415;28;20393;-89
2020/12/01 13:45:08;;;;;;;11.13;3.58;;;21.80;96.90;;;;;;5071580;28;20394;-89